Time;durP1;ratioP1;P1;durP2;ratioP2;P2;SDS_P1;SDS_P2;PMS_P1;PMS_P2;Temp;Humidity;BMP_temperature;BMP_pressure;BME280_temperature;BME280_humidity;BME280_pressure;Samples;Min_cycle;Max_cycle;Signal;HPM_P1;HPM_P2
2023/01/11 00:00:41;;;;;;;3.38;1.13;;;;;;;;;;5076315;28;20052;-56
2023/01/11 00:03:07;;;;;;;1.20;0.88;;;;;;;;;;5071623;28;20044;-57
2023/01/11 00:05:40;;;;;;;1.00;0.88;;;;;;;;;;5073416;28;20038;-56
2023/01/11 00:08:06;;;;;;;1.77;1.10;;;;;;;;;;5069892;28;20036;-57
2023/01/11 00:10:32;;;;;;;2.00;1.00;;;;;;;;;;5073501;28;20063;-57
2023/01/11 00:12:58;;;;;;;1.13;0.75;;;;;;;;;;5070404;28;20074;-59
2023/01/11 00:15:23;;;;;;;1.02;0.93;;;;;;;;;;5072618;28;20465;-56
2023/01/11 00:17:49;;;;;;;1.77;1.02;;;;;;;;;;5081522;28;20043;-56
2023/01/11 00:20:14;;;;;;;1.90;0.80;;;;;;;;;;5074925;28;20025;-59
2023/01/11 00:22:40;;;;;;;1.55;0.80;;;;;;;;;;5065453;28;20535;-57
2023/01/11 00:25:05;;;;;;;0.90;0.75;;;;;;;;;;5053894;28;20040;-57
2023/01/11 00:27:31;;;;;;;2.08;0.90;;;;;;;;;;5070126;28;20067;-55
2023/01/11 00:29:56;;;;;;;2.63;1.30;;;;;;;;;;5072535;28;20057;-59
2023/01/11 00:32:22;;;;;;;1.65;0.95;;;;;;;;;;5070396;28;20037;-54
2023/01/11 00:34:47;;;;;;;1.73;0.80;;;;;;;;;;5070739;28;20058;-59
2023/01/11 00:37:13;;;;;;;2.13;0.70;;;;;;;;;;5068793;28;20362;-56
2023/01/11 00:39:38;;;;;;;1.38;0.82;;;;;;;;;;5054594;28;20024;-56
2023/01/11 00:50:15;;;;;;;0.68;0.60;;;;;;;;;;5071554;28;20595;-56
2023/01/11 00:52:41;;;;;;;2.75;0.60;;;;;;;;;;5068966;28;20040;-57
2023/01/11 00:55:06;;;;;;;2.92;0.70;;;;;;;;;;5067744;28;20024;-56
2023/01/11 00:57:32;;;;;;;0.85;0.70;;;;;;;;;;5053438;28;20080;-57
2023/01/11 00:59:57;;;;;;;0.93;0.70;;;;;;;;;;5054947;28;20044;-60
2023/01/11 01:02:23;;;;;;;0.77;0.57;;;;;;;;;;5071537;28;20107;-55
2023/01/11 01:04:48;;;;;;;1.15;0.90;;;;;;;;;;5071331;28;20089;-56
2023/01/11 01:07:13;;;;;;;0.52;0.52;;;;;;;;;;5069240;28;20052;-58
2023/01/11 01:09:39;;;;;;;1.35;0.90;;;;;;;;;;5071026;28;20070;-56
2023/01/11 01:12:05;;;;;;;1.45;0.70;;;;;;;;;;5067888;28;20357;-56
2023/01/11 01:14:32;;;;;;;0.50;0.50;;;;;;;;;;5071842;28;20036;-58
2023/01/11 01:17:08;;;;;;;2.90;0.80;;;;;;;;;;5068627;28;20055;-61
2023/01/11 01:19:37;;;;;;;2.88;0.90;;;;;;;;;;5065318;28;20107;-59
2023/01/11 01:22:03;;;;;;;2.78;0.80;;;;;;;;;;5066372;28;20032;-58
2023/01/11 01:24:29;;;;;;;1.75;0.82;;;;;;;;;;5071706;28;20043;-58
2023/01/11 01:26:57;;;;;;;0.70;0.70;;;;;;;;;;5070647;28;20082;-58
2023/01/11 01:29:22;;;;;;;2.28;0.90;;;;;;;;;;5065902;28;20032;-57
2023/01/11 01:31:48;;;;;;;2.47;0.80;;;;;;;;;;5060615;28;20032;-53
2023/01/11 01:34:13;;;;;;;1.80;0.80;;;;;;;;;;5070883;28;20036;-57
2023/01/11 01:36:39;;;;;;;1.05;0.65;;;;;;;;;;5068825;28;20036;-57
2023/01/11 01:39:06;;;;;;;2.25;0.70;;;;;;;;;;5077970;28;20029;-55
2023/01/11 01:41:33;;;;;;;1.10;0.80;;;;;;;;;;5071413;28;20033;-57
2023/01/11 01:44:01;;;;;;;0.80;0.60;;;;;;;;;;5066890;28;20040;-54
2023/01/11 01:46:29;;;;;;;2.40;0.77;;;;;;;;;;5069333;28;20036;-58
2023/01/11 01:49:14;;;;;;;3.42;0.80;;;;;;;;;;5064124;28;20032;-58
2023/01/11 01:51:49;;;;;;;1.00;0.70;;;;;;;;;;5069058;28;20086;-56
2023/01/11 01:54:19;;;;;;;1.05;0.68;;;;;;;;;;5070517;28;20035;-56
2023/01/11 01:56:50;;;;;;;0.93;0.80;;;;;;;;;;5069138;28;20036;-57
2023/01/11 01:59:18;;;;;;;1.15;0.70;;;;;;;;;;5070081;28;20450;-56
2023/01/11 02:01:48;;;;;;;2.25;0.80;;;;;;;;;;5070711;28;20396;-55
2023/01/11 02:04:26;;;;;;;0.88;0.70;;;;;;;;;;5072468;28;20071;-57
2023/01/11 02:07:03;;;;;;;0.88;0.60;;;;;;;;;;5082134;28;20066;-58
2023/01/11 02:09:40;;;;;;;0.60;0.60;;;;;;;;;;5067370;28;20029;-56
2023/01/11 02:12:07;;;;;;;0.80;0.60;;;;;;;;;;5068473;28;20033;-60
2023/01/11 02:14:34;;;;;;;0.50;0.50;;;;;;;;;;5070402;28;20369;-56
2023/01/11 02:17:00;;;;;;;0.57;0.57;;;;;;;;;;5070816;28;20395;-56
2023/01/11 02:19:34;;;;;;;0.80;0.60;;;;;;;;;;5067324;28;20462;-56
2023/01/11 02:22:18;;;;;;;0.30;0.30;;;;;;;;;;5068064;28;20082;-54
2023/01/11 02:24:55;;;;;;;1.60;0.60;;;;;;;;;;5069780;28;20381;-56
2023/01/11 02:28:05;;;;;;;0.98;0.70;;;;;;;;;;5069591;28;20115;-58
2023/01/11 02:30:42;;;;;;;0.60;0.60;;;;;;;;;;5067694;28;20044;-54
2023/01/11 02:33:16;;;;;;;2.85;0.60;;;;;;;;;;5062781;28;20036;-54
2023/01/11 02:35:57;;;;;;;0.52;0.52;;;;;;;;;;5069134;28;20416;-56
2023/01/11 02:38:33;;;;;;;0.57;0.57;;;;;;;;;;5066127;28;20067;-56
2023/01/11 02:41:26;;;;;;;0.70;0.70;;;;;;;;;;5063513;28;20047;-58
2023/01/11 02:46:52;;;;;;;3.47;0.60;;;;;;;;;;5055205;28;20463;-60
2023/01/11 02:49:22;;;;;;;0.60;0.60;;;;;;;;;;5069446;28;20036;-55
2023/01/11 02:52:03;;;;;;;0.93;0.80;;;;;;;;;;5067004;28;20029;-57
2023/01/11 02:54:30;;;;;;;0.77;0.77;;;;;;;;;;5064320;28;20293;-57
2023/01/11 02:56:59;;;;;;;0.70;0.65;;;;;;;;;;5048118;28;20111;-57
2023/01/11 02:59:31;;;;;;;2.67;0.80;;;;;;;;;;5065915;28;20165;-56
2023/01/11 03:01:56;;;;;;;1.88;0.90;;;;;;;;;;5073801;28;20055;-57
2023/01/11 03:04:36;;;;;;;6.07;0.80;;;;;;;;;;5079421;28;20063;-56
2023/01/11 03:07:21;;;;;;;1.00;0.73;;;;;;;;;;5067987;28;20036;-56
2023/01/11 03:10:24;;;;;;;1.52;0.80;;;;;;;;;;5030959;28;20097;-55
2023/01/11 03:13:08;;;;;;;0.95;0.55;;;;;;;;;;5069442;28;20527;-56
2023/01/11 03:16:18;;;;;;;0.95;0.80;;;;;;;;;;5068968;28;20082;-61
2023/01/11 03:19:21;;;;;;;1.00;0.80;;;;;;;;;;5068505;28;20062;-60
2023/01/11 03:22:32;;;;;;;1.95;0.80;;;;;;;;;;5074663;28;20493;-59
2023/01/11 03:25:04;;;;;;;0.95;0.85;;;;;;;;;;5037935;28;20322;-59
2023/01/11 03:27:56;;;;;;;0.98;0.90;;;;;;;;;;5071312;28;20071;-60
2023/01/11 03:30:34;;;;;;;1.00;0.90;;;;;;;;;;5069169;28;20094;-60
2023/01/11 03:33:05;;;;;;;1.15;1.05;;;;;;;;;;5079636;28;20081;-58
2023/01/11 03:35:56;;;;;;;1.60;1.10;;;;;;;;;;5076283;28;20043;-60
2023/01/11 03:38:27;;;;;;;1.13;0.90;;;;;;;;;;5070784;28;20123;-58
2023/01/11 03:41:11;;;;;;;1.15;1.05;;;;;;;;;;5073487;28;20083;-59
2023/01/11 03:43:40;;;;;;;1.23;1.10;;;;;;;;;;5083994;28;20040;-58
2023/01/11 03:46:15;;;;;;;1.10;1.00;;;;;;;;;;5075408;28;20040;-59
2023/01/11 03:48:49;;;;;;;1.10;1.00;;;;;;;;;;5073754;28;20086;-58
2023/01/11 03:51:19;;;;;;;1.17;1.00;;;;;;;;;;5069892;28;20032;-59
2023/01/11 03:53:48;;;;;;;1.15;0.90;;;;;;;;;;5085969;28;20409;-59
2023/01/11 03:56:19;;;;;;;1.80;1.08;;;;;;;;;;5092152;28;20074;-59
2023/01/11 03:58:44;;;;;;;1.40;1.00;;;;;;;;;;5076061;28;20059;-58
2023/01/11 04:01:10;;;;;;;1.77;1.25;;;;;;;;;;5068175;28;20067;-62
2023/01/11 04:03:35;;;;;;;1.88;1.10;;;;;;;;;;5077206;28;20029;-59
2023/01/11 04:06:01;;;;;;;1.20;0.90;;;;;;;;;;5069782;28;20028;-58
2023/01/11 04:08:27;;;;;;;2.92;1.80;;;;;;;;;;5069518;28;20437;-61
2023/01/11 04:10:53;;;;;;;1.60;1.00;;;;;;;;;;5077919;28;20114;-58
2023/01/11 04:13:18;;;;;;;1.25;1.10;;;;;;;;;;5077371;28;20111;-58
2023/01/11 04:15:44;;;;;;;1.00;1.00;;;;;;;;;;5069340;28;20032;-59
2023/01/11 04:18:09;;;;;;;1.02;0.98;;;;;;;;;;5071660;28;20036;-61
2023/01/11 04:20:37;;;;;;;1.52;1.40;;;;;;;;;;5070811;28;20440;-60
2023/01/11 04:23:04;;;;;;;1.55;1.10;;;;;;;;;;5071945;28;20074;-57
2023/01/11 04:25:30;;;;;;;1.13;1.10;;;;;;;;;;5070166;28;20489;-59
2023/01/11 04:27:56;;;;;;;3.65;1.25;;;;;;;;;;5072753;28;20633;-59
2023/01/11 04:30:21;;;;;;;1.35;1.10;;;;;;;;;;5071134;28;20041;-59
2023/01/11 04:32:47;;;;;;;3.45;1.08;;;;;;;;;;5072301;28;20035;-59
2023/01/11 04:35:13;;;;;;;2.42;0.90;;;;;;;;;;5069880;28;20480;-61
2023/01/11 04:37:38;;;;;;;1.38;1.20;;;;;;;;;;5070644;28;20460;-60
2023/01/11 04:40:04;;;;;;;1.42;1.02;;;;;;;;;;5076969;28;20118;-59
2023/01/11 04:42:30;;;;;;;4.75;1.00;;;;;;;;;;5072845;28;20149;-58
2023/01/11 04:44:55;;;;;;;2.97;1.33;;;;;;;;;;5071821;28;20043;-61
2023/01/11 04:47:22;;;;;;;1.20;1.10;;;;;;;;;;5070364;28;20483;-58
2023/01/11 04:49:48;;;;;;;2.05;1.10;;;;;;;;;;5071512;28;20029;-59
2023/01/11 04:52:16;;;;;;;1.73;1.20;;;;;;;;;;5066820;28;20369;-61
2023/01/11 04:54:41;;;;;;;1.75;1.20;;;;;;;;;;5071149;28;20538;-59
2023/01/11 04:57:11;;;;;;;1.65;1.00;;;;;;;;;;5071152;28;20033;-58
2023/01/11 04:59:36;;;;;;;1.40;1.17;;;;;;;;;;5071636;28;20049;-59
2023/01/11 05:02:01;;;;;;;1.33;1.13;;;;;;;;;;5068547;28;20028;-59
2023/01/11 05:04:27;;;;;;;1.65;1.13;;;;;;;;;;5066705;28;20040;-60
2023/01/11 05:06:52;;;;;;;1.70;1.10;;;;;;;;;;5072692;28;20032;-59
2023/01/11 05:09:18;;;;;;;2.30;1.30;;;;;;;;;;5069816;28;20087;-60
2023/01/11 05:11:44;;;;;;;1.60;1.42;;;;;;;;;;5071270;28;20536;-58
2023/01/11 05:14:10;;;;;;;2.13;1.30;;;;;;;;;;5068008;28;20112;-60
2023/01/11 05:16:36;;;;;;;1.85;1.30;;;;;;;;;;5071792;28;20567;-60
2023/01/11 05:19:04;;;;;;;2.47;1.30;;;;;;;;;;5085082;28;20119;-59
2023/01/11 05:21:31;;;;;;;3.03;1.45;;;;;;;;;;5092438;28;20023;-59
2023/01/11 05:24:02;;;;;;;1.75;1.60;;;;;;;;;;5083001;28;20390;-59
2023/01/11 05:26:31;;;;;;;2.53;1.27;;;;;;;;;;5072172;28;20497;-59
2023/01/11 05:29:00;;;;;;;2.28;1.13;;;;;;;;;;5069449;28;20102;-59
2023/01/11 05:31:26;;;;;;;2.40;1.50;;;;;;;;;;5072102;28;20505;-60
2023/01/11 05:33:52;;;;;;;1.83;1.60;;;;;;;;;;5081730;28;20068;-60
2023/01/11 05:36:20;;;;;;;2.15;1.60;;;;;;;;;;5090031;28;20028;-61
2023/01/11 05:38:47;;;;;;;2.03;1.42;;;;;;;;;;5052539;28;20112;-59
2023/01/11 05:41:14;;;;;;;2.22;1.60;;;;;;;;;;5060924;28;20044;-60
2023/01/11 05:46:24;;;;;;;3.88;2.05;;;;;;;;;;5075677;28;20059;-61
2023/01/11 05:48:50;;;;;;;3.45;1.75;;;;;;;;;;5071571;28;20071;-60
2023/01/11 05:51:16;;;;;;;3.10;1.80;;;;;;;;;;5070072;28;20075;-61
2023/01/11 05:53:42;;;;;;;2.78;1.88;;;;;;;;;;5074045;28;20032;-60
2023/01/11 05:56:08;;;;;;;3.08;1.80;;;;;;;;;;5072311;28;20046;-60
2023/01/11 05:58:33;;;;;;;2.60;1.52;;;;;;;;;;5069675;28;20558;-61
2023/01/11 06:00:58;;;;;;;2.38;1.65;;;;;;;;;;5080848;28;20036;-60
2023/01/11 06:03:25;;;;;;;5.35;2.00;;;;;;;;;;5070774;28;20177;-61
2023/01/11 06:05:51;;;;;;;2.95;1.90;;;;;;;;;;5071790;28;20044;-61
2023/01/11 06:08:17;;;;;;;2.47;1.52;;;;;;;;;;5069826;28;20040;-61
2023/01/11 06:10:49;;;;;;;3.65;2.10;;;;;;;;;;5075871;28;20115;-61
2023/01/11 06:13:27;;;;;;;2.83;1.80;;;;;;;;;;5084148;28;20526;-60
2023/01/11 06:16:03;;;;;;;3.85;2.13;;;;;;;;;;5071437;28;20436;-60
2023/01/11 06:18:30;;;;;;;4.10;1.73;;;;;;;;;;5085662;28;20040;-61
2023/01/11 06:20:55;;;;;;;2.75;1.75;;;;;;;;;;5065244;28;20044;-60
2023/01/11 06:23:22;;;;;;;1.92;1.60;;;;;;;;;;5078782;28;20562;-61
2023/01/11 06:25:48;;;;;;;3.30;1.90;;;;;;;;;;5066857;28;20044;-57
2023/01/11 06:28:13;;;;;;;3.05;1.90;;;;;;;;;;5068617;28;20028;-56
2023/01/11 06:30:39;;;;;;;3.90;1.83;;;;;;;;;;5068982;28;20324;-56
2023/01/11 06:33:05;;;;;;;3.20;1.90;;;;;;;;;;5064626;28;20493;-60
2023/01/11 06:35:41;;;;;;;2.50;1.83;;;;;;;;;;5051649;28;20056;-59
2023/01/11 06:38:09;;;;;;;4.13;1.77;;;;;;;;;;5078948;28;20032;-60
2023/01/11 06:40:35;;;;;;;3.53;2.00;;;;;;;;;;5090316;28;20054;-63
2023/01/11 06:43:00;;;;;;;5.72;2.35;;;;;;;;;;5090323;28;20028;-61
2023/01/11 06:45:26;;;;;;;2.97;2.00;;;;;;;;;;5075411;28;20485;-61
2023/01/11 06:47:52;;;;;;;3.28;2.00;;;;;;;;;;5069834;28;20097;-61
2023/01/11 06:50:17;;;;;;;4.20;2.00;;;;;;;;;;5070635;28;20085;-62
2023/01/11 06:52:43;;;;;;;3.47;1.88;;;;;;;;;;5067071;28;20492;-61
2023/01/11 06:55:08;;;;;;;5.22;2.50;;;;;;;;;;5083695;28;20103;-61
2023/01/11 06:57:34;;;;;;;3.17;2.17;;;;;;;;;;5090676;28;20051;-61
2023/01/11 06:59:59;;;;;;;3.10;2.08;;;;;;;;;;5080969;28;20072;-61
2023/01/11 07:02:25;;;;;;;4.57;2.50;;;;;;;;;;5066697;28;20116;-62
2023/01/11 07:04:50;;;;;;;3.20;2.10;;;;;;;;;;5062005;28;20028;-61
2023/01/11 07:07:16;;;;;;;3.25;2.10;;;;;;;;;;5070985;28;20024;-61
2023/01/11 07:09:41;;;;;;;4.05;2.45;;;;;;;;;;5069997;28;20164;-60
2023/01/11 07:12:07;;;;;;;4.32;2.40;;;;;;;;;;5069380;28;20385;-61
2023/01/11 07:14:32;;;;;;;2.80;2.10;;;;;;;;;;5076842;28;20108;-61
2023/01/11 07:16:58;;;;;;;4.47;2.70;;;;;;;;;;5091347;28;20492;-61
2023/01/11 07:19:23;;;;;;;4.05;2.85;;;;;;;;;;5080576;28;20025;-63
2023/01/11 07:21:48;;;;;;;6.40;3.63;;;;;;;;;;5070853;28;20101;-61
2023/01/11 07:24:14;;;;;;;5.72;3.67;;;;;;;;;;5074743;28;20487;-62
2023/01/11 07:26:40;;;;;;;5.50;3.78;;;;;;;;;;5084300;28;20039;-63
2023/01/11 07:29:09;;;;;;;5.00;2.92;;;;;;;;;;5080754;28;20028;-61
2023/01/11 07:31:35;;;;;;;6.57;4.30;;;;;;;;;;5084157;28;20133;-62
2023/01/11 07:34:01;;;;;;;8.27;3.63;;;;;;;;;;5075291;28;20472;-61
2023/01/11 07:36:28;;;;;;;8.45;4.53;;;;;;;;;;5087564;28;20024;-62
2023/01/11 07:38:54;;;;;;;7.30;3.15;;;;;;;;;;5091088;28;20040;-61
2023/01/11 07:44:03;;;;;;;7.63;4.80;;;;;;;;;;5067381;28;20095;-61
2023/01/11 07:46:29;;;;;;;9.95;5.82;;;;;;;;;;5069621;28;20385;-59
2023/01/11 07:48:54;;;;;;;12.68;6.47;;;;;;;;;;5054035;28;20086;-59
2023/01/11 07:51:22;;;;;;;7.40;4.47;;;;;;;;;;5067647;28;20475;-61
2023/01/11 07:53:48;;;;;;;8.82;5.55;;;;;;;;;;5070383;28;20032;-60
2023/01/11 07:56:14;;;;;;;10.80;6.30;;;;;;;;;;5069352;28;20366;-61
2023/01/11 07:58:39;;;;;;;11.88;6.03;;;;;;;;;;5067569;28;20075;-60
2023/01/11 08:01:04;;;;;;;11.38;6.50;;;;;;;;;;5069262;28;20485;-60
2023/01/11 08:03:30;;;;;;;12.15;6.80;;;;;;;;;;5056631;28;20091;-60
2023/01/11 08:05:55;;;;;;;12.65;6.75;;;;;;;;;;5081546;28;20113;-60
2023/01/11 08:08:21;;;;;;;12.00;7.18;;;;;;;;;;5082715;28;20048;-60
2023/01/11 08:14:37;;;;;;;14.45;7.68;;;;;;;;;;5072163;28;20028;-59
2023/01/11 08:16:16;;;;;;;14.48;7.97;;;;;;;;;;5094153;28;20446;-60
2023/01/11 08:18:42;;;;;;;13.80;7.85;;;;;;;;;;5067778;28;20044;-61
2023/01/11 08:21:07;;;;;;;13.43;7.85;;;;;;;;;;5070626;28;20024;-61
2023/01/11 08:23:33;;;;;;;14.73;8.32;;;;;;;;;;5072339;28;20036;-60
2023/01/11 08:25:58;;;;;;;13.38;7.40;;;;;;;;;;5072646;28;20039;-61
2023/01/11 08:28:23;;;;;;;14.93;8.00;;;;;;;;;;5073205;28;20031;-61
2023/01/11 08:30:49;;;;;;;14.48;8.20;;;;;;;;;;5071029;28;20051;-61
2023/01/11 08:33:14;;;;;;;14.52;8.30;;;;;;;;;;5072177;28;20031;-61
2023/01/11 08:35:40;;;;;;;14.45;7.63;;;;;;;;;;5078935;28;20032;-61
2023/01/11 08:38:05;;;;;;;14.10;8.70;;;;;;;;;;5072594;28;20028;-60
2023/01/11 08:40:31;;;;;;;15.70;9.05;;;;;;;;;;5072598;28;20024;-61
2023/01/11 08:42:56;;;;;;;15.07;8.13;;;;;;;;;;5086735;28;20070;-60
2023/01/11 08:45:22;;;;;;;13.70;7.88;;;;;;;;;;5092593;28;20047;-60
2023/01/11 08:47:49;;;;;;;16.33;8.52;;;;;;;;;;5078683;28;20516;-61
2023/01/11 08:50:16;;;;;;;15.25;8.55;;;;;;;;;;5073407;28;20104;-58
2023/01/11 08:52:42;;;;;;;14.93;8.10;;;;;;;;;;5067182;28;20033;-60
2023/01/11 08:55:08;;;;;;;14.52;8.55;;;;;;;;;;5072946;28;20038;-60
2023/01/11 08:57:35;;;;;;;14.43;7.28;;;;;;;;;;5083443;28;20393;-61
2023/01/11 09:00:02;;;;;;;11.52;6.45;;;;;;;;;;5059952;28;20056;-60
2023/01/11 09:02:28;;;;;;;10.23;4.20;;;;;;;;;;5062216;28;20107;-62
2023/01/11 09:04:53;;;;;;;11.05;3.70;;;;;;;;;;5055004;28;20126;-61
2023/01/11 09:07:18;;;;;;;10.30;2.90;;;;;;;;;;5058897;28;20047;-60
2023/01/11 09:09:44;;;;;;;11.65;3.25;;;;;;;;;;5050117;28;20091;-61
2023/01/11 09:12:09;;;;;;;12.40;2.97;;;;;;;;;;5060254;28;20453;-60
2023/01/11 09:14:35;;;;;;;8.93;2.17;;;;;;;;;;5053616;28;20086;-60
2023/01/11 09:17:00;;;;;;;10.77;3.00;;;;;;;;;;5048162;28;20037;-61
2023/01/11 09:19:26;;;;;;;14.75;3.35;;;;;;;;;;5052350;28;20039;-62
2023/01/11 09:21:52;;;;;;;11.90;3.03;;;;;;;;;;5064978;28;20032;-62
2023/01/11 09:24:17;;;;;;;10.90;2.22;;;;;;;;;;5072741;28;20044;-61
2023/01/11 09:26:43;;;;;;;10.95;3.00;;;;;;;;;;5051598;28;20037;-58
2023/01/11 09:29:09;;;;;;;14.00;3.53;;;;;;;;;;5060222;28;20088;-61
2023/01/11 09:31:34;;;;;;;12.13;3.17;;;;;;;;;;5049746;28;20481;-61
2023/01/11 09:34:00;;;;;;;12.68;2.95;;;;;;;;;;5030827;28;20061;-61
2023/01/11 09:36:26;;;;;;;13.27;3.30;;;;;;;;;;5055641;28;20021;-61
2023/01/11 09:38:55;;;;;;;15.32;3.05;;;;;;;;;;5071799;28;20473;-60
2023/01/11 09:41:36;;;;;;;12.65;3.10;;;;;;;;;;5060011;28;20040;-55
2023/01/11 09:44:10;;;;;;;15.85;3.50;;;;;;;;;;5046309;28;20068;-58
2023/01/11 09:46:41;;;;;;;13.55;2.88;;;;;;;;;;5034893;28;20036;-59
2023/01/11 09:49:12;;;;;;;12.47;3.47;;;;;;;;;;5035635;28;20116;-56
2023/01/11 09:51:38;;;;;;;18.58;3.47;;;;;;;;;;5038230;28;20162;-60
2023/01/11 09:54:09;;;;;;;17.33;4.05;;;;;;;;;;5052150;28;20115;-60
2023/01/11 09:56:45;;;;;;;17.58;3.47;;;;;;;;;;5050257;28;20171;-61
2023/01/11 09:59:39;;;;;;;14.07;3.58;;;;;;;;;;5053142;28;20071;-60
2023/01/11 10:02:18;;;;;;;13.52;3.90;;;;;;;;;;5081228;28;20517;-61
2023/01/11 10:05:08;;;;;;;14.30;3.85;;;;;;;;;;5088699;28;20114;-59
2023/01/11 10:08:06;;;;;;;8.40;2.83;;;;;;;;;;5068543;28;20115;-62
2023/01/11 10:10:49;;;;;;;17.27;3.42;;;;;;;;;;5071468;28;20034;-61
2023/01/11 10:13:15;;;;;;;15.70;3.63;;;;;;;;;;5071886;28;20028;-61
2023/01/11 10:15:52;;;;;;;14.82;3.53;;;;;;;;;;5070412;28;20028;-61
2023/01/11 10:18:27;;;;;;;16.95;3.72;;;;;;;;;;5071187;28;20064;-60
2023/01/11 10:20:58;;;;;;;12.02;3.15;;;;;;;;;;5073821;28;20044;-61
2023/01/11 10:23:49;;;;;;;13.40;3.17;;;;;;;;;;5074152;28;20024;-61
2023/01/11 10:26:27;;;;;;;16.05;3.05;;;;;;;;;;5056631;28;20477;-60
2023/01/11 10:42:42;;;;;;;13.20;3.05;;;;;;;;;;5085587;28;20068;-62
2023/01/11 10:45:24;;;;;;;15.45;2.92;;;;;;;;;;5080002;28;20509;-62
2023/01/11 10:48:00;;;;;;;9.48;2.85;;;;;;;;;;5067703;28;20609;-61
2023/01/11 10:50:45;;;;;;;12.93;2.97;;;;;;;;;;5091514;28;20024;-62
2023/01/11 10:53:23;;;;;;;14.05;3.13;;;;;;;;;;5088510;28;20054;-61
2023/01/11 10:56:24;;;;;;;9.27;2.88;;;;;;;;;;5090802;28;20027;-60
2023/01/11 10:59:17;;;;;;;9.05;2.60;;;;;;;;;;5035488;28;20222;-61
2023/01/11 11:02:02;;;;;;;9.15;1.98;;;;;;;;;;5049465;28;20040;-62
2023/01/11 11:04:34;;;;;;;12.30;2.53;;;;;;;;;;5030476;28;20036;-62
2023/01/11 11:07:10;;;;;;;10.73;3.03;;;;;;;;;;5051137;28;20025;-56
2023/01/11 11:09:50;;;;;;;11.32;3.03;;;;;;;;;;5047620;28;20432;-60
2023/01/11 11:12:25;;;;;;;8.43;2.17;;;;;;;;;;5030487;28;20477;-60
2023/01/11 11:15:02;;;;;;;8.52;2.45;;;;;;;;;;5050536;28;20024;-60
2023/01/11 11:17:33;;;;;;;13.32;1.80;;;;;;;;;;5058222;28;20033;-64
2023/01/11 11:19:59;;;;;;;7.45;2.13;;;;;;;;;;5045885;28;20029;-60
2023/01/11 11:22:25;;;;;;;10.32;2.70;;;;;;;;;;5067318;28;20047;-57
2023/01/11 11:24:56;;;;;;;10.32;2.53;;;;;;;;;;5035548;28;20036;-58
2023/01/11 11:27:37;;;;;;;10.95;2.28;;;;;;;;;;5068359;28;20100;-58
2023/01/11 11:30:03;;;;;;;12.95;2.33;;;;;;;;;;5049651;28;20481;-58
2023/01/11 11:32:38;;;;;;;10.52;2.40;;;;;;;;;;5049101;28;20037;-61
2023/01/11 11:35:06;;;;;;;11.23;2.13;;;;;;;;;;5033185;28;20103;-58
2023/01/11 11:37:43;;;;;;;10.02;2.53;;;;;;;;;;5052828;28;20060;-59
2023/01/11 11:40:30;;;;;;;9.60;1.77;;;;;;;;;;5052502;28;20029;-60
2023/01/11 11:43:22;;;;;;;10.48;2.30;;;;;;;;;;5045191;28;20029;-58
2023/01/11 11:46:23;;;;;;;11.30;2.40;;;;;;;;;;5056367;28;20037;-59
2023/01/11 11:49:07;;;;;;;12.68;2.35;;;;;;;;;;5006000;28;20067;-59
2023/01/11 11:51:32;;;;;;;6.55;1.55;;;;;;;;;;5052890;28;20067;-60
2023/01/11 11:53:58;;;;;;;7.57;2.05;;;;;;;;;;5035043;28;20033;-55
2023/01/11 11:56:30;;;;;;;8.68;1.90;;;;;;;;;;5054341;28;20116;-56
2023/01/11 11:58:57;;;;;;;9.70;2.10;;;;;;;;;;5054496;28;20051;-56
2023/01/11 12:01:28;;;;;;;14.27;2.67;;;;;;;;;;5072160;28;20409;-53
2023/01/11 12:04:08;;;;;;;12.15;1.83;;;;;;;;;;5068254;28;20111;-57
2023/01/11 12:06:35;;;;;;;11.02;2.88;;;;;;;;;;5082701;28;20522;-51
2023/01/11 12:09:01;;;;;;;8.68;2.75;;;;;;;;;;5071720;28;20060;-58
2023/01/11 12:11:46;;;;;;;15.35;3.08;;;;;;;;;;5078521;28;20113;-58
2023/01/11 12:14:26;;;;;;;11.73;2.42;;;;;;;;;;5091505;28;20025;-55
2023/01/11 12:16:51;;;;;;;9.30;2.40;;;;;;;;;;5070389;28;20131;-60
2023/01/11 12:19:40;;;;;;;9.40;2.40;;;;;;;;;;5073473;28;20108;-60
2023/01/11 12:22:14;;;;;;;11.10;2.42;;;;;;;;;;5073740;28;20488;-61
2023/01/11 12:24:40;;;;;;;10.85;2.50;;;;;;;;;;5071959;28;20032;-61
2023/01/11 12:27:10;;;;;;;9.27;2.60;;;;;;;;;;5076064;28;20031;-57
2023/01/11 12:29:53;;;;;;;9.25;2.97;;;;;;;;;;5073079;28;20134;-56
2023/01/11 12:32:31;;;;;;;9.90;2.90;;;;;;;;;;5091236;28;20040;-60
2023/01/11 12:35:07;;;;;;;13.93;3.10;;;;;;;;;;5093676;28;20069;-62
2023/01/11 12:37:36;;;;;;;13.63;3.55;;;;;;;;;;5074101;28;20454;-60
2023/01/11 12:40:49;;;;;;;16.65;3.55;;;;;;;;;;5082954;28;20165;-60
2023/01/11 12:43:28;;;;;;;13.00;3.03;;;;;;;;;;5083794;28;20037;-60
2023/01/11 12:46:12;;;;;;;10.18;2.85;;;;;;;;;;5070051;28;20469;-60
2023/01/11 12:48:54;;;;;;;10.43;3.70;;;;;;;;;;5070171;28;20049;-61
2023/01/11 12:51:40;;;;;;;9.90;3.22;;;;;;;;;;5066269;28;20090;-59
2023/01/11 12:54:27;;;;;;;10.65;3.38;;;;;;;;;;5074847;28;20035;-57
2023/01/11 12:57:34;;;;;;;10.18;3.17;;;;;;;;;;5092819;28;20059;-60
2023/01/11 13:00:18;;;;;;;13.18;3.65;;;;;;;;;;5072987;28;20063;-59
2023/01/11 13:03:21;;;;;;;11.77;3.10;;;;;;;;;;5080955;28;20190;-59
2023/01/11 13:06:00;;;;;;;8.98;3.10;;;;;;;;;;5070431;28;20044;-60
2023/01/11 13:08:34;;;;;;;9.35;2.85;;;;;;;;;;5086690;28;20038;-60
2023/01/11 13:11:11;;;;;;;11.80;3.20;;;;;;;;;;5093343;28;20067;-59
2023/01/11 13:14:10;;;;;;;8.18;2.85;;;;;;;;;;5090644;28;20032;-60
2023/01/11 13:16:42;;;;;;;11.43;3.67;;;;;;;;;;5091084;28;20121;-60
2023/01/11 13:19:44;;;;;;;10.07;3.00;;;;;;;;;;5056173;28;20033;-59
2023/01/11 13:22:15;;;;;;;8.93;3.05;;;;;;;;;;5069709;28;20036;-62
2023/01/11 13:24:42;;;;;;;12.10;3.43;;;;;;;;;;5071380;28;20029;-60
2023/01/11 13:27:14;;;;;;;12.63;3.55;;;;;;;;;;5089788;28;20035;-61
2023/01/11 13:29:44;;;;;;;11.10;3.65;;;;;;;;;;5090694;28;20024;-61
2023/01/11 13:32:20;;;;;;;10.40;3.40;;;;;;;;;;5068582;28;20035;-61
2023/01/11 13:35:08;;;;;;;11.07;3.00;;;;;;;;;;5062031;28;20035;-61
2023/01/11 13:37:41;;;;;;;12.00;3.05;;;;;;;;;;5059178;28;20404;-58
2023/01/11 13:40:21;;;;;;;12.98;4.68;;;;;;;;;;5081114;28;20107;-60
2023/01/11 13:42:51;;;;;;;11.77;3.78;;;;;;;;;;5092106;28;20103;-60
2023/01/11 13:45:27;;;;;;;9.57;3.60;;;;;;;;;;5081105;28;20032;-60
2023/01/11 13:47:57;;;;;;;8.57;2.85;;;;;;;;;;5053226;28;20044;-56
2023/01/11 13:50:46;;;;;;;9.10;2.53;;;;;;;;;;5070475;28;20036;-59
2023/01/11 13:53:24;;;;;;;13.43;3.30;;;;;;;;;;5072833;28;20021;-55
2023/01/11 13:56:01;;;;;;;11.45;3.10;;;;;;;;;;5087919;28;20728;-62
2023/01/11 13:58:36;;;;;;;5.72;2.20;;;;;;;;;;5070220;28;20020;-61
2023/01/11 14:01:13;;;;;;;9.60;2.90;;;;;;;;;;5070808;28;20071;-60
2023/01/11 14:04:00;;;;;;;7.60;2.38;;;;;;;;;;5059865;28;20116;-60
2023/01/11 14:06:41;;;;;;;8.98;2.38;;;;;;;;;;5072051;28;20052;-60
2023/01/11 14:09:15;;;;;;;9.38;2.30;;;;;;;;;;5074752;28;20098;-61
2023/01/11 14:11:52;;;;;;;12.90;3.03;;;;;;;;;;5066850;28;20032;-61
2023/01/11 14:14:29;;;;;;;13.60;2.58;;;;;;;;;;5065832;28;20103;-60
2023/01/11 14:17:00;;;;;;;10.45;3.03;;;;;;;;;;5069229;28;20166;-60
2023/01/11 14:19:47;;;;;;;11.80;2.70;;;;;;;;;;5069173;28;20040;-60
2023/01/11 14:22:28;;;;;;;11.73;2.80;;;;;;;;;;5071702;28;20035;-60
2023/01/11 14:25:01;;;;;;;11.30;2.95;;;;;;;;;;5070746;28;20037;-60
2023/01/11 14:27:31;;;;;;;6.22;2.28;;;;;;;;;;5071340;28;20213;-59
2023/01/11 14:30:00;;;;;;;11.48;2.70;;;;;;;;;;5071285;28;20039;-60
2023/01/11 14:32:37;;;;;;;7.85;2.38;;;;;;;;;;5054432;28;20056;-60
2023/01/11 14:35:15;;;;;;;11.85;2.38;;;;;;;;;;5066681;28;20039;-60
2023/01/11 14:37:58;;;;;;;8.73;2.38;;;;;;;;;;5065615;28;20028;-60
2023/01/11 14:40:39;;;;;;;7.30;2.33;;;;;;;;;;5080260;28;20085;-60
2023/01/11 14:43:34;;;;;;;13.23;2.60;;;;;;;;;;5063522;28;20384;-61
2023/01/11 14:46:21;;;;;;;12.18;2.45;;;;;;;;;;5061094;28;20028;-61
2023/01/11 14:48:56;;;;;;;7.50;2.45;;;;;;;;;;5064514;28;20078;-61
2023/01/11 14:51:32;;;;;;;9.05;2.70;;;;;;;;;;5077806;28;20063;-58
2023/01/11 14:54:20;;;;;;;11.82;2.40;;;;;;;;;;5079886;28;20464;-58
2023/01/11 14:56:48;;;;;;;12.70;2.92;;;;;;;;;;5068932;28;20029;-60
2023/01/11 14:59:29;;;;;;;8.82;2.20;;;;;;;;;;5062138;28;20182;-59
2023/01/11 15:02:03;;;;;;;12.63;2.72;;;;;;;;;;5071050;28;20036;-60
2023/01/11 15:04:31;;;;;;;10.00;2.35;;;;;;;;;;5090225;28;20465;-62
2023/01/11 15:06:58;;;;;;;16.70;2.85;;;;;;;;;;5085414;28;20033;-60
2023/01/11 15:09:57;;;;;;;8.85;2.63;;;;;;;;;;5051594;28;20045;-60
2023/01/11 15:12:30;;;;;;;10.77;2.63;;;;;;;;;;5030901;28;20434;-60
2023/01/11 15:15:06;;;;;;;10.00;3.00;;;;;;;;;;5095232;28;20062;-60
2023/01/11 15:20:19;;;;;;;9.95;2.08;;;;;;;;;;5094060;28;20043;-60
2023/01/11 15:22:53;;;;;;;12.70;2.40;;;;;;;;;;5091048;28;20032;-61
2023/01/11 15:25:24;;;;;;;5.05;1.88;;;;;;;;;;5085950;28;20060;-61
2023/01/11 15:27:50;;;;;;;;;;;;;;;;;;5074643;28;20106;-61
2023/01/11 15:30:27;;;;;;;11.10;2.47;;;;;;;;;;5094709;28;20288;-61
2023/01/11 15:33:13;;;;;;;10.98;2.15;;;;;;;;;;5087603;28;20063;-61
2023/01/11 15:35:39;;;;;;;15.45;3.10;;;;;;;;;;5087380;28;20070;-61
2023/01/11 15:38:19;;;;;;;14.13;2.95;;;;;;;;;;5094815;28;20060;-61
2023/01/11 15:40:45;;;;;;;9.57;2.53;;;;;;;;;;5081217;28;20493;-60
2023/01/11 15:43:25;;;;;;;8.85;2.45;;;;;;;;;;5073481;28;20041;-61